FYWH/WDH METAR and TAF weather

Enter ICAO airport designator
Station Type Date Time Source
FYWH METAR 2019/06/18 16:00 UTC NOAA

FYWH 181600Z 06005KT CAVOK 20/M01 Q1029 NOSIG


Station Type Date Time Source
FYWH Decoded METAR 2019/06/18 16:00 UTC NOAA

J. G. Strijdom, Namibia (FYWH) 22-29S 017-28E 1700M
Jun 18, 2019 - 12:00 PM EDT / 2019.06.18 1600 UTC
Wind: from the ENE (060 degrees) at 6 MPH (5 KT):0
Visibility: greater than 7 mile(s):0
Temperature: 68 F (20 C)
Dew Point: 30 F (-1 C)
Relative Humidity: 24%
Pressure (altimeter): 30.39 in. Hg (1029 hPa)
ob: FYWH 181600Z 06005KT CAVOK 20/M01 Q1029 NOSIG
cycle: 16

Station Type Date Time Source
FYWH TAF 2019/06/18 18:03 UTC NOAA

TAF FYWH 181600Z 1818/1918 05005KT CAVOK

Example: see airport list